Disney Magic — C6PT7 — position and weather

sailwx.info

Track history (hours):
 
Tides and Currents Weather Stations Pressure Air Temp Water Temp Dewpoint Dewpoint Depression Visibility Wind Speed Wind Dir Waves Ship Positions

Disney Magic

Last reported at 2014-Sep-02 18:34 UTC. Time now 2014-Sep-02 19:01 UTC.
Position N 44°02' E 009°52'.

Type: Passenger vessel. MMSI: 308516000.

Date/timePositionNaut miles runAvg speedWind from/ knotsBaromVisibWave heightAir tempDewpointWater temp
2014-Sep-02 18:34N 44°02' E 009°52'5 4.7
2014-Sep-02 17:32N 44°06' E 009°50'0 0.0
2014-Sep-02 16:32N 44°06' E 009°50'0 0.0
2014-Sep-02 15:32N 44°06' E 009°50'0 0.0
2014-Sep-02 14:32N 44°06' E 009°50'0 0.0
2014-Sep-02 13:32N 44°06' E 009°50'0 0.0
2014-Sep-02 12:32N 44°06' E 009°50'0 0.0
2014-Sep-02 11:32N 44°06' E 009°50'0 0.0
2014-Sep-02 10:32N 44°06' E 009°50'0 0.0
2014-Sep-02 09:32N 44°06' E 009°50'0 0.0
2014-Sep-02 08:32N 44°06' E 009°50'0 0.0
2014-Sep-02 07:32N 44°06' E 009°50'0 0.0
2014-Sep-02 06:32N 44°06' E 009°50'0 0.0
2014-Sep-02 05:32N 44°06' E 009°50'0 0.1
2014-Sep-02 04:34N 44°06' E 009°50'6 6.3
2014-Sep-02 03:33N 44°01' E 009°55'7 6.5
2014-Sep-02 02:33N 43°56' E 009°49'9 9.2
2014-Sep-02 01:33N 43°53' E 009°38'9 9.3
2014-Sep-02 00:33N 43°49' E 009°26'10 9.5
2014-Sep-01 23:33N 43°45' E 009°14'1010.0
2014-Sep-01 22:33N 43°42' E 009°00'1010.1
2014-Sep-01 21:33N 43°39' E 008°47'1616.1
2014-Sep-01 20:33N 43°36' E 008°26'1716.6
2014-Sep-01 19:34N 43°34' E 008°03'1716.6
2014-Sep-01 18:34N 43°37' E 007°40'1515.4
2014-Sep-01 17:33N 43°40' E 007°19'2 1.6
2014-Sep-01 16:30N 43°42' E 007°19'0 0.0
2014-Sep-01 15:30N 43°41' E 007°19'0 0.0
2014-Sep-01 14:30N 43°41' E 007°19'0 0.0
2014-Sep-01 13:24N 43°42' E 007°19'0 0.0
2014-Sep-01 12:24N 43°41' E 007°19'0 0.0
2014-Sep-01 11:30N 43°41' E 007°19'0 0.1
2014-Sep-01 10:30N 43°41' E 007°19'0 0.1
2014-Sep-01 09:18N 43°41' E 007°19'0 0.0
2014-Sep-01 08:24N 43°41' E 007°19'0 0.0
2014-Sep-01 07:24N 43°41' E 007°19'0 0.0
2014-Sep-01 06:30N 43°41' E 007°19'0 0.0
2014-Sep-01 05:24N 43°41' E 007°19'2 2.2
2014-Sep-01 04:33N 43°40' E 007°18'8 7.7
2014-Sep-01 03:33N 43°32' E 007°15'9 8.6
2014-Sep-01 02:33N 43°24' E 007°12'8 8.2
2014-Sep-01 01:33N 43°16' E 007°11'9 8.8
2014-Sep-01 00:30N 43°18' E 007°24'10 9.9
2014-Aug-31 23:29N 43°24' E 007°34'5 5.6
2014-Aug-31 22:33N 43°29' E 007°33'9 9.0
2014-Aug-31 21:33N 43°30' E 007°21'8 7.9
2014-Aug-31 20:33N 43°27' E 007°10'9 8.5
2014-Aug-31 19:33N 43°21' E 007°02'9 8.5
2014-Aug-31 18:33N 43°14' E 006°56'9 8.6
2014-Aug-31 17:33N 43°07' E 006°49'9 8.7
2014-Aug-31 16:33N 42°60' E 006°42'8 8.4
2014-Aug-31 15:33N 42°53' E 006°35'9 8.7
2014-Aug-31 14:33N 42°51' E 006°23'9 8.6
2014-Aug-31 13:33N 42°47' E 006°13'9 8.8
2014-Aug-31 12:33N 42°43' E 006°02'9 8.8
2014-Aug-31 11:31N 42°38' E 005°51'9 9.0
2014-Aug-31 10:33N 42°34' E 005°41'11 9.4
2014-Aug-31 09:25N 42°30' E 005°28'8 9.1
2014-Aug-31 08:33N 42°26' E 005°18'9 9.4
2014-Aug-31 07:32N 42°22' E 005°07'68 9.3
2014-Aug-31 00:12N 41°51' E 003°44'15 8.8
2014-Aug-30 22:32N 41°44' E 003°27'9 9.2
2014-Aug-30 21:33N 41°40' E 003°17'1010.0
2014-Aug-30 20:32N 41°35' E 003°04'1010.0
2014-Aug-30 19:32N 41°30' E 002°53'9 9.1
2014-Aug-30 18:32N 41°26' E 002°42'1010.0
2014-Aug-30 17:30N 41°22' E 002°29'1010.1
2014-Aug-30 16:31N 41°17' E 002°18'7 0.7
2014-Aug-30 06:32N 41°21' E 002°11'0 0.0
2014-Aug-30 05:08N 41°21' E 002°11'0 0.0
2014-Aug-30 04:32N 41°21' E 002°11'0 0.0
2014-Aug-30 03:14N 41°21' E 002°11'1 1.6
2014-Aug-30 02:33N 41°20' E 002°10'7 7.2
2014-Aug-30 01:33N 41°16' E 002°18'1110.8
2014-Aug-30 00:34N 41°16' E 002°32'1717.3
2014-Aug-29 23:33N 41°16' E 002°55'1818.4
2014-Aug-29 22:33N 41°16' E 003°20'2117.8
2014-Aug-29 21:24N 41°17' E 003°47'1517.3
2014-Aug-29 20:33N 41°17' E 004°07'1716.9
2014-Aug-29 19:31N 41°17' E 004°30'1917.2
2014-Aug-29 18:24N 41°17' E 004°55'1916.8
2014-Aug-29 17:16N 41°19' E 005°20'1816.6
2014-Aug-29 16:13N 41°18' E 005°44'1217.6
2014-Aug-29 15:33N 41°18' E 005°59'7417.2
2014-Aug-29 11:16N 41°19' E 007°37'1317.5
2014-Aug-29 10:32N 41°19' E 007°54'3417.4
2014-Aug-29 08:34N 41°20' E 008°40'2118.1
2014-Aug-29 07:22N 41°18' E 009°09'22616.3
2014-Aug-28 17:32N 40°40' E 014°03'1410.1
2014-Aug-28 16:09N 40°50' E 014°16'0 0.0
2014-Aug-28 14:27N 40°50' E 014°16'0 0.0
2014-Aug-28 13:30N 40°50' E 014°16'0 0.0
2014-Aug-28 12:33N 40°50' E 014°16'0 0.0
2014-Aug-28 11:33N 40°50' E 014°16'0 0.0
2014-Aug-28 10:33N 40°50' E 014°16'0 0.0
2014-Aug-28 09:33N 40°50' E 014°16'0 0.0
2014-Aug-28 08:27N 40°50' E 014°16'0 0.0
2014-Aug-28 07:33N 40°50' E 014°16'173 5.7
2014-Aug-27 01:13N 42°07' E 010°49'1218.2
2014-Aug-27 00:33N 42°17' E 010°38'2119.9
2014-Aug-26 23:30N 42°32' E 010°19'1818.8
2014-Aug-26 22:33N 42°44' E 010°00'1919.2
2014-Aug-26 21:33N 43°03' E 009°60'2020.1
2014-Aug-26 20:33N 43°23' E 010°03'1717.3
2014-Aug-26 19:33N 43°38' E 009°53'1919.2
2014-Aug-26 18:34N 43°58' E 009°52'9 8.8
2014-Aug-26 17:33N 44°06' E 009°50'0 0.0
2014-Aug-26 16:32N 44°06' E 009°50'0 0.0
2014-Aug-26 15:33N 44°06' E 009°50'0 0.0
2014-Aug-26 14:33N 44°06' E 009°50'0 0.0
2014-Aug-26 13:32N 44°06' E 009°50'0 0.0
2014-Aug-26 12:33N 44°06' E 009°50'0 0.0
2014-Aug-26 11:32N 44°06' E 009°50'0 0.0
2014-Aug-26 10:32N 44°06' E 009°50'0 0.0
2014-Aug-26 09:33N 44°06' E 009°50'0 0.0
2014-Aug-26 08:32N 44°06' E 009°50'0 0.0
2014-Aug-26 07:33N 44°06' E 009°50'0 0.0
2014-Aug-26 06:32N 44°06' E 009°50'0 0.0
2014-Aug-26 05:32N 44°06' E 009°50'0 0.2
2014-Aug-26 04:34N 44°06' E 009°50'6 6.4
2014-Aug-26 03:33N 44°01' E 009°55'7 6.9
2014-Aug-26 02:34N 43°55' E 009°53'6 6.5
2014-Aug-26 01:34N 43°54' E 009°44'9 9.4
2014-Aug-26 00:34N 43°51' E 009°32'1010.1
2014-Aug-25 23:34N 43°47' E 009°19'1010.1
2014-Aug-25 22:34N 43°43' E 009°06'1010.1
2014-Aug-25 21:33N 43°40' E 008°53'1413.6
2014-Aug-25 20:33N 43°37' E 008°34'1616.3
2014-Aug-25 19:33N 43°34' E 008°12'3316.3
2014-Aug-25 17:33N 43°38' E 007°27'7 7.2
2014-Aug-25 16:33N 43°41' E 007°19'0 0.0
2014-Aug-25 15:27N 43°41' E 007°19'0 0.0
2014-Aug-25 14:27N 43°41' E 007°19'0 0.0
2014-Aug-25 13:33N 43°41' E 007°19'0 0.0
2014-Aug-25 12:27N 43°41' E 007°19'0 0.0
2014-Aug-25 11:33N 43°41' E 007°19'0 0.0
2014-Aug-25 10:27N 43°41' E 007°19'0 0.0
2014-Aug-25 09:33N 43°41' E 007°19'0 0.0
2014-Aug-25 08:33N 43°41' E 007°19'0 0.0
2014-Aug-25 07:27N 43°41' E 007°19'0 0.0
2014-Aug-25 06:33N 43°41' E 007°19'0 0.0
2014-Aug-25 05:33N 43°41' E 007°19'2 1.8
2014-Aug-25 04:33N 43°40' E 007°19'7 7.4
2014-Aug-25 03:33N 43°32' E 007°17'6 6.1
2014-Aug-25 02:33N 43°28' E 007°23'8 8.5
2014-Aug-25 01:33N 43°28' E 007°11'8 7.6
2014-Aug-25 00:33N 43°21' E 007°17'8 8.5
2014-Aug-24 23:34N 43°27' E 007°26'8 8.4
2014-Aug-24 22:33N 43°34' E 007°18'8 8.3
2014-Aug-24 21:33N 43°28' E 007°10'8 8.5
2014-Aug-24 20:33N 43°21' E 007°03'9 8.7
2014-Aug-24 19:33N 43°14' E 006°56'9 8.6
2014-Aug-24 18:33N 43°07' E 006°49'8 7.8
2014-Aug-24 17:33N 43°01' E 006°42'7 7.4
2014-Aug-24 16:33N 42°56' E 006°35'7 6.8
2014-Aug-24 15:33N 42°52' E 006°27'7 7.3
2014-Aug-24 14:33N 42°49' E 006°18'8 8.1
2014-Aug-24 13:33N 42°45' E 006°09'8 8.1
2014-Aug-24 12:33N 42°41' E 005°59'8 8.3
2014-Aug-24 11:33N 42°38' E 005°49'9 8.6
2014-Aug-24 10:33N 42°34' E 005°38'9 9.2
2014-Aug-24 09:34N 42°30' E 005°27'9 9.2
2014-Aug-24 08:33N 42°25' E 005°16'10 9.5
2014-Aug-24 07:33N 42°21' E 005°05'9 9.4
2014-Aug-24 06:33N 42°17' E 004°53'11 9.5
2014-Aug-24 05:25N 42°12' E 004°40'9 9.9
2014-Aug-24 04:29N 42°08' E 004°29'10 8.8
2014-Aug-24 03:22N 42°03' E 004°17'16 8.4
2014-Aug-24 01:29N 41°56' E 003°58'8 8.6
2014-Aug-24 00:31N 41°52' E 003°48'8 8.6
2014-Aug-23 23:33N 41°48' E 003°39'9 8.9
2014-Aug-23 22:33N 41°44' E 003°28'10 9.2
2014-Aug-23 21:29N 41°40' E 003°16'19 9.6
2014-Aug-23 19:29N 41°31' E 002°53'  
Track history (hours):
 
Tides and Currents Weather Stations Pressure Air Temp Water Temp Dewpoint Dewpoint Depression Visibility Wind Speed Wind Dir Waves Ship Positions

Disney Magic

Last reported at 2014-Sep-02 18:34 UTC. Time now 2014-Sep-02 19:01 UTC.
Position N 44°02' E 009°52'.

Type: Passenger vessel. MMSI: 308516000.

Date/timePositionNaut miles runAvg speedWind from/ knotsBaromVisibWave heightAir tempDewpointWater temp
2014-Sep-02 18:34N 44°02' E 009°52'5 4.7
2014-Sep-02 17:32N 44°06' E 009°50'0 0.0
2014-Sep-02 16:32N 44°06' E 009°50'0 0.0
2014-Sep-02 15:32N 44°06' E 009°50'0 0.0
2014-Sep-02 14:32N 44°06' E 009°50'0 0.0
2014-Sep-02 13:32N 44°06' E 009°50'0 0.0
2014-Sep-02 12:32N 44°06' E 009°50'0 0.0
2014-Sep-02 11:32N 44°06' E 009°50'0 0.0
2014-Sep-02 10:32N 44°06' E 009°50'0 0.0
2014-Sep-02 09:32N 44°06' E 009°50'0 0.0
2014-Sep-02 08:32N 44°06' E 009°50'0 0.0
2014-Sep-02 07:32N 44°06' E 009°50'0 0.0
2014-Sep-02 06:32N 44°06' E 009°50'0 0.0
2014-Sep-02 05:32N 44°06' E 009°50'0 0.1
2014-Sep-02 04:34N 44°06' E 009°50'6 6.3
2014-Sep-02 03:33N 44°01' E 009°55'7 6.5
2014-Sep-02 02:33N 43°56' E 009°49'9 9.2
2014-Sep-02 01:33N 43°53' E 009°38'9 9.3
2014-Sep-02 00:33N 43°49' E 009°26'10 9.5
2014-Sep-01 23:33N 43°45' E 009°14'1010.0
2014-Sep-01 22:33N 43°42' E 009°00'1010.1
2014-Sep-01 21:33N 43°39' E 008°47'1616.1
2014-Sep-01 20:33N 43°36' E 008°26'1716.6
2014-Sep-01 19:34N 43°34' E 008°03'1716.6
2014-Sep-01 18:34N 43°37' E 007°40'1515.4
2014-Sep-01 17:33N 43°40' E 007°19'2 1.6
2014-Sep-01 16:30N 43°42' E 007°19'0 0.0
2014-Sep-01 15:30N 43°41' E 007°19'0 0.0
2014-Sep-01 14:30N 43°41' E 007°19'0 0.0
2014-Sep-01 13:24N 43°42' E 007°19'0 0.0
2014-Sep-01 12:24N 43°41' E 007°19'0 0.0
2014-Sep-01 11:30N 43°41' E 007°19'0 0.1
2014-Sep-01 10:30N 43°41' E 007°19'0 0.1
2014-Sep-01 09:18N 43°41' E 007°19'0 0.0
2014-Sep-01 08:24N 43°41' E 007°19'0 0.0
2014-Sep-01 07:24N 43°41' E 007°19'0 0.0
2014-Sep-01 06:30N 43°41' E 007°19'0 0.0
2014-Sep-01 05:24N 43°41' E 007°19'2 2.2
2014-Sep-01 04:33N 43°40' E 007°18'8 7.7
2014-Sep-01 03:33N 43°32' E 007°15'9 8.6
2014-Sep-01 02:33N 43°24' E 007°12'8 8.2
2014-Sep-01 01:33N 43°16' E 007°11'9 8.8
2014-Sep-01 00:30N 43°18' E 007°24'10 9.9
2014-Aug-31 23:29N 43°24' E 007°34'5 5.6
2014-Aug-31 22:33N 43°29' E 007°33'9 9.0
2014-Aug-31 21:33N 43°30' E 007°21'8 7.9
2014-Aug-31 20:33N 43°27' E 007°10'9 8.5
2014-Aug-31 19:33N 43°21' E 007°02'9 8.5
2014-Aug-31 18:33N 43°14' E 006°56'9 8.6
2014-Aug-31 17:33N 43°07' E 006°49'9 8.7
2014-Aug-31 16:33N 42°60' E 006°42'8 8.4
2014-Aug-31 15:33N 42°53' E 006°35'9 8.7
2014-Aug-31 14:33N 42°51' E 006°23'9 8.6
2014-Aug-31 13:33N 42°47' E 006°13'9 8.8
2014-Aug-31 12:33N 42°43' E 006°02'9 8.8
2014-Aug-31 11:31N 42°38' E 005°51'9 9.0
2014-Aug-31 10:33N 42°34' E 005°41'11 9.4
2014-Aug-31 09:25N 42°30' E 005°28'8 9.1
2014-Aug-31 08:33N 42°26' E 005°18'9 9.4
2014-Aug-31 07:32N 42°22' E 005°07'68 9.3
2014-Aug-31 00:12N 41°51' E 003°44'15 8.8
2014-Aug-30 22:32N 41°44' E 003°27'9 9.2
2014-Aug-30 21:33N 41°40' E 003°17'1010.0
2014-Aug-30 20:32N 41°35' E 003°04'1010.0
2014-Aug-30 19:32N 41°30' E 002°53'9 9.1
2014-Aug-30 18:32N 41°26' E 002°42'1010.0
2014-Aug-30 17:30N 41°22' E 002°29'1010.1
2014-Aug-30 16:31N 41°17' E 002°18'7 0.7
2014-Aug-30 06:32N 41°21' E 002°11'0 0.0
2014-Aug-30 05:08N 41°21' E 002°11'0 0.0
2014-Aug-30 04:32N 41°21' E 002°11'0 0.0
2014-Aug-30 03:14N 41°21' E 002°11'1 1.6
2014-Aug-30 02:33N 41°20' E 002°10'7 7.2
2014-Aug-30 01:33N 41°16' E 002°18'1110.8
2014-Aug-30 00:34N 41°16' E 002°32'1717.3
2014-Aug-29 23:33N 41°16' E 002°55'1818.4
2014-Aug-29 22:33N 41°16' E 003°20'2117.8
2014-Aug-29 21:24N 41°17' E 003°47'1517.3
2014-Aug-29 20:33N 41°17' E 004°07'1716.9
2014-Aug-29 19:31N 41°17' E 004°30'1917.2
2014-Aug-29 18:24N 41°17' E 004°55'1916.8
2014-Aug-29 17:16N 41°19' E 005°20'1816.6
2014-Aug-29 16:13N 41°18' E 005°44'1217.6
2014-Aug-29 15:33N 41°18' E 005°59'7417.2
2014-Aug-29 11:16N 41°19' E 007°37'1317.5
2014-Aug-29 10:32N 41°19' E 007°54'3417.4
2014-Aug-29 08:34N 41°20' E 008°40'2118.1
2014-Aug-29 07:22N 41°18' E 009°09'22616.3
2014-Aug-28 17:32N 40°40' E 014°03'1410.1
2014-Aug-28 16:09N 40°50' E 014°16'0 0.0
2014-Aug-28 14:27N 40°50' E 014°16'0 0.0
2014-Aug-28 13:30N 40°50' E 014°16'0 0.0
2014-Aug-28 12:33N 40°50' E 014°16'0 0.0
2014-Aug-28 11:33N 40°50' E 014°16'0 0.0
2014-Aug-28 10:33N 40°50' E 014°16'0 0.0
2014-Aug-28 09:33N 40°50' E 014°16'0 0.0
2014-Aug-28 08:27N 40°50' E 014°16'0 0.0
2014-Aug-28 07:33N 40°50' E 014°16'173 5.7
2014-Aug-27 01:13N 42°07' E 010°49'1218.2
2014-Aug-27 00:33N 42°17' E 010°38'2119.9
2014-Aug-26 23:30N 42°32' E 010°19'1818.8
2014-Aug-26 22:33N 42°44' E 010°00'1919.2
2014-Aug-26 21:33N 43°03' E 009°60'2020.1
2014-Aug-26 20:33N 43°23' E 010°03'1717.3
2014-Aug-26 19:33N 43°38' E 009°53'1919.2
2014-Aug-26 18:34N 43°58' E 009°52'9 8.8
2014-Aug-26 17:33N 44°06' E 009°50'0 0.0
2014-Aug-26 16:32N 44°06' E 009°50'0 0.0
2014-Aug-26 15:33N 44°06' E 009°50'0 0.0
2014-Aug-26 14:33N 44°06' E 009°50'0 0.0
2014-Aug-26 13:32N 44°06' E 009°50'0 0.0
2014-Aug-26 12:33N 44°06' E 009°50'0 0.0
2014-Aug-26 11:32N 44°06' E 009°50'0 0.0
2014-Aug-26 10:32N 44°06' E 009°50'0 0.0
2014-Aug-26 09:33N 44°06' E 009°50'0 0.0
2014-Aug-26 08:32N 44°06' E 009°50'0 0.0
2014-Aug-26 07:33N 44°06' E 009°50'0 0.0
2014-Aug-26 06:32N 44°06' E 009°50'0 0.0
2014-Aug-26 05:32N 44°06' E 009°50'0 0.2
2014-Aug-26 04:34N 44°06' E 009°50'6 6.4
2014-Aug-26 03:33N 44°01' E 009°55'7 6.9
2014-Aug-26 02:34N 43°55' E 009°53'6 6.5
2014-Aug-26 01:34N 43°54' E 009°44'9 9.4
2014-Aug-26 00:34N 43°51' E 009°32'1010.1
2014-Aug-25 23:34N 43°47' E 009°19'1010.1
2014-Aug-25 22:34N 43°43' E 009°06'1010.1
2014-Aug-25 21:33N 43°40' E 008°53'1413.6
2014-Aug-25 20:33N 43°37' E 008°34'1616.3
2014-Aug-25 19:33N 43°34' E 008°12'3316.3
2014-Aug-25 17:33N 43°38' E 007°27'7 7.2
2014-Aug-25 16:33N 43°41' E 007°19'0 0.0
2014-Aug-25 15:27N 43°41' E 007°19'0 0.0
2014-Aug-25 14:27N 43°41' E 007°19'0 0.0
2014-Aug-25 13:33N 43°41' E 007°19'0 0.0
2014-Aug-25 12:27N 43°41' E 007°19'0 0.0
2014-Aug-25 11:33N 43°41' E 007°19'0 0.0
2014-Aug-25 10:27N 43°41' E 007°19'0 0.0
2014-Aug-25 09:33N 43°41' E 007°19'0 0.0
2014-Aug-25 08:33N 43°41' E 007°19'0 0.0
2014-Aug-25 07:27N 43°41' E 007°19'0 0.0
2014-Aug-25 06:33N 43°41' E 007°19'0 0.0
2014-Aug-25 05:33N 43°41' E 007°19'2 1.8
2014-Aug-25 04:33N 43°40' E 007°19'7 7.4
2014-Aug-25 03:33N 43°32' E 007°17'6 6.1
2014-Aug-25 02:33N 43°28' E 007°23'8 8.5
2014-Aug-25 01:33N 43°28' E 007°11'8 7.6
2014-Aug-25 00:33N 43°21' E 007°17'8 8.5
2014-Aug-24 23:34N 43°27' E 007°26'8 8.4
2014-Aug-24 22:33N 43°34' E 007°18'8 8.3
2014-Aug-24 21:33N 43°28' E 007°10'8 8.5
2014-Aug-24 20:33N 43°21' E 007°03'9 8.7
2014-Aug-24 19:33N 43°14' E 006°56'9 8.6
2014-Aug-24 18:33N 43°07' E 006°49'8 7.8
2014-Aug-24 17:33N 43°01' E 006°42'7 7.4
2014-Aug-24 16:33N 42°56' E 006°35'7 6.8
2014-Aug-24 15:33N 42°52' E 006°27'7 7.3
2014-Aug-24 14:33N 42°49' E 006°18'8 8.1
2014-Aug-24 13:33N 42°45' E 006°09'8 8.1
2014-Aug-24 12:33N 42°41' E 005°59'8 8.3
2014-Aug-24 11:33N 42°38' E 005°49'9 8.6
2014-Aug-24 10:33N 42°34' E 005°38'9 9.2
2014-Aug-24 09:34N 42°30' E 005°27'9 9.2
2014-Aug-24 08:33N 42°25' E 005°16'10 9.5
2014-Aug-24 07:33N 42°21' E 005°05'9 9.4
2014-Aug-24 06:33N 42°17' E 004°53'11 9.5
2014-Aug-24 05:25N 42°12' E 004°40'9 9.9
2014-Aug-24 04:29N 42°08' E 004°29'10 8.8
2014-Aug-24 03:22N 42°03' E 004°17'16 8.4
2014-Aug-24 01:29N 41°56' E 003°58'8 8.6
2014-Aug-24 00:31N 41°52' E 003°48'8 8.6
2014-Aug-23 23:33N 41°48' E 003°39'9 8.9
2014-Aug-23 22:33N 41°44' E 003°28'10 9.2
2014-Aug-23 21:29N 41°40' E 003°16'19 9.6
2014-Aug-23 19:29N 41°31' E 002°53'  

Dump ship's entire track history